createdAt,value
2018-06-11T00:00:16.851Z,99.00
2018-06-11T00:02:45.952Z,98.80
2018-06-11T00:05:14.890Z,99.00
2018-06-11T00:07:43.832Z,98.80
2018-06-11T00:10:12.780Z,98.60
2018-06-11T00:12:41.719Z,98.80
2018-06-11T00:15:10.680Z,98.70
2018-06-11T00:17:39.886Z,98.70
2018-06-11T00:20:08.821Z,98.90
2018-06-11T00:22:37.833Z,99.10
2018-06-11T00:25:06.960Z,99.10
2018-06-11T00:27:35.953Z,99.10
2018-06-11T00:30:04.894Z,99.20
2018-06-11T00:32:33.834Z,99.20
2018-06-11T00:35:02.758Z,99.40
2018-06-11T00:37:31.686Z,99.40
2018-06-11T00:40:00.657Z,99.20
2018-06-11T00:42:29.568Z,99.80
2018-06-11T00:44:58.533Z,99.50
2018-06-11T00:47:27.531Z,99.40
2018-06-11T00:49:56.445Z,99.60
2018-06-11T00:52:25.414Z,99.80
2018-06-11T00:54:54.506Z,99.90
2018-06-11T00:57:23.561Z,99.90
2018-06-11T01:02:21.020Z,99.90
2018-06-11T01:04:49.980Z,99.90
2018-06-11T01:07:18.857Z,99.90
2018-06-11T01:09:47.769Z,99.90
2018-06-11T01:12:16.674Z,99.90
2018-06-11T01:14:45.590Z,99.90
2018-06-11T01:17:14.555Z,99.90
2018-06-11T01:19:43.445Z,99.90
2018-06-11T01:22:12.405Z,99.90
2018-06-11T01:24:41.446Z,99.90
2018-06-11T01:27:10.402Z,99.90
2018-06-11T01:29:39.398Z,99.90
2018-06-11T01:32:08.505Z,99.90
2018-06-11T01:34:37.537Z,99.90
2018-06-11T01:37:06.604Z,99.90
2018-06-11T01:39:35.489Z,99.90
2018-06-11T01:44:32.973Z,99.90
2018-06-11T01:47:02.022Z,99.90
2018-06-11T01:49:30.933Z,99.90
2018-06-11T01:51:59.903Z,99.90
2018-06-11T01:54:28.849Z,99.90
2018-06-11T01:56:57.786Z,99.90
2018-06-11T01:59:26.953Z,99.90
2018-06-11T02:01:55.885Z,99.90
2018-06-11T02:04:24.808Z,99.90
2018-06-11T02:06:53.716Z,99.90
2018-06-11T02:09:22.647Z,99.90
2018-06-11T02:11:51.575Z,99.90
2018-06-11T02:14:20.529Z,99.90
2018-06-11T02:16:49.751Z,99.90
2018-06-11T02:21:47.365Z,99.90
2018-06-11T02:24:16.295Z,99.90
2018-06-11T02:26:45.257Z,99.90
2018-06-11T02:29:14.180Z,99.90
2018-06-11T02:31:43.129Z,99.90
2018-06-11T02:34:12.089Z,99.90
2018-06-11T02:36:41.056Z,99.90
2018-06-11T02:39:10.267Z,99.90
2018-06-11T02:41:39.178Z,99.90
2018-06-11T02:44:08.186Z,99.90
2018-06-11T02:46:38.208Z,99.90
2018-06-11T02:49:07.606Z,99.90
2018-06-11T02:51:36.543Z,99.90
2018-06-11T02:54:05.477Z,99.90
2018-06-11T02:56:34.420Z,99.90
2018-06-11T02:59:03.324Z,99.90
2018-06-11T03:01:32.266Z,99.90
2018-06-11T03:04:01.207Z,99.90
2018-06-11T03:06:30.130Z,99.90
2018-06-11T03:08:59.133Z,99.90
2018-06-11T03:11:28.054Z,99.90
2018-06-11T03:13:56.967Z,99.90
2018-06-11T03:16:25.929Z,99.90
2018-06-11T03:18:54.909Z,99.80
2018-06-11T03:21:23.806Z,99.90
2018-06-11T03:23:52.949Z,99.90
2018-06-11T03:26:21.863Z,99.90
2018-06-11T03:28:51.408Z,99.90
2018-06-11T03:31:20.374Z,99.90
2018-06-11T03:33:50.125Z,99.70
2018-06-11T03:36:19.124Z,99.80
2018-06-11T03:38:48.042Z,99.90
2018-06-11T03:41:16.952Z,99.80
2018-06-11T03:43:45.893Z,99.80
2018-06-11T03:46:14.789Z,99.90
2018-06-11T03:48:43.810Z,99.90
2018-06-11T03:51:13.659Z,99.90
2018-06-11T03:53:42.583Z,99.90
2018-06-11T03:56:11.496Z,99.90
2018-06-11T03:58:40.412Z,99.90
2018-06-11T04:01:09.330Z,99.90
2018-06-11T04:03:38.240Z,99.90
2018-06-11T04:06:07.206Z,99.90
2018-06-11T04:08:36.120Z,99.50
2018-06-11T04:11:05.169Z,99.70
2018-06-11T04:13:33.984Z,99.80
2018-06-11T04:16:02.966Z,99.70
2018-06-11T04:18:31.873Z,99.60
2018-06-11T04:21:00.803Z,99.70
2018-06-11T04:23:29.800Z,99.40
2018-06-11T04:25:58.726Z,99.30
2018-06-11T04:28:27.617Z,99.10
2018-06-11T04:33:25.138Z,98.50
2018-06-11T04:35:54.084Z,99.40
2018-06-11T04:38:23.068Z,98.30
2018-06-11T04:40:52.061Z,98.60
2018-06-11T04:43:21.001Z,98.00
2018-06-11T04:45:49.913Z,98.60
2018-06-11T04:48:18.848Z,98.40
2018-06-11T04:50:47.770Z,98.80
2018-06-11T04:53:16.689Z,98.30
2018-06-11T04:55:45.613Z,97.90
2018-06-11T04:58:14.538Z,96.80
2018-06-11T05:00:43.452Z,95.80
2018-06-11T05:03:12.455Z,95.60
2018-06-11T05:05:41.368Z,94.30
2018-06-11T05:08:10.313Z,93.40
2018-06-11T05:10:39.309Z,93.40
2018-06-11T05:13:08.296Z,92.30
2018-06-11T05:15:37.255Z,91.60
2018-06-11T05:18:06.191Z,91.90
2018-06-11T05:20:35.134Z,91.60
2018-06-11T05:23:04.055Z,90.90
2018-06-11T05:25:33.066Z,91.50
2018-06-11T05:28:02.358Z,90.80
2018-06-11T05:30:31.268Z,90.80
2018-06-11T05:33:00.219Z,90.80
2018-06-11T05:35:30.019Z,91.20
2018-06-11T05:37:59.107Z,89.90
2018-06-11T05:40:28.143Z,90.40
2018-06-11T05:42:56.978Z,91.00
2018-06-11T05:45:25.874Z,91.50
2018-06-11T05:47:54.855Z,92.30
2018-06-11T05:50:23.724Z,92.80
2018-06-11T05:52:52.713Z,93.10
2018-06-11T05:55:21.626Z,93.40
2018-06-11T05:57:50.546Z,93.30
2018-06-11T06:00:19.497Z,94.10
2018-06-11T06:02:48.477Z,93.20
2018-06-11T06:05:17.439Z,93.60
2018-06-11T06:07:46.373Z,92.60
2018-06-11T06:10:15.468Z,91.90
2018-06-11T06:12:44.392Z,92.00
2018-06-11T06:15:13.331Z,91.10
2018-06-11T06:20:10.840Z,91.80
2018-06-11T06:22:39.765Z,91.80
2018-06-11T06:25:08.686Z,92.00
2018-06-11T06:27:37.924Z,92.20
2018-06-11T06:30:06.883Z,91.20
2018-06-11T06:32:35.821Z,91.20
2018-06-11T06:35:04.757Z,90.70
2018-06-11T06:37:33.706Z,90.30
2018-06-11T06:40:02.621Z,89.40
2018-06-11T06:42:31.870Z,88.60
2018-06-11T06:45:00.885Z,90.10
2018-06-11T06:47:29.823Z,91.00
2018-06-11T06:49:58.770Z,90.40
2018-06-11T06:52:27.668Z,89.20
2018-06-11T06:54:56.628Z,90.50
2018-06-11T06:57:25.554Z,89.50
2018-06-11T06:59:54.485Z,89.40
2018-06-11T07:02:24.452Z,89.10
2018-06-11T07:04:53.418Z,88.10
2018-06-11T07:07:22.416Z,90.00
2018-06-11T07:09:51.364Z,89.00
2018-06-11T07:12:20.552Z,86.40
2018-06-11T07:17:20.911Z,81.80
2018-06-11T07:19:50.378Z,81.80
2018-06-11T07:22:21.041Z,80.00
2018-06-11T07:24:50.628Z,78.20
2018-06-11T07:27:19.753Z,77.70
2018-06-11T07:29:49.201Z,77.60
2018-06-11T07:32:19.173Z,76.70
2018-06-11T07:34:49.541Z,75.80
2018-06-11T07:37:18.589Z,78.30
2018-06-11T07:39:48.495Z,76.40
2018-06-11T07:42:18.463Z,74.30
2018-06-11T07:44:47.953Z,74.70
2018-06-11T07:47:16.929Z,75.30
2018-06-11T07:49:46.498Z,72.00
2018-06-11T07:54:47.932Z,68.70
2018-06-11T07:57:17.746Z,70.30
2018-06-11T07:59:47.049Z,73.10
2018-06-11T08:02:16.769Z,75.40
2018-06-11T08:04:46.493Z,74.30
2018-06-11T08:09:44.801Z,70.00
2018-06-11T08:12:14.391Z,71.60
2018-06-11T08:14:43.361Z,71.80
2018-06-11T08:17:12.389Z,75.70
2018-06-11T08:19:41.370Z,74.00
2018-06-11T08:22:10.326Z,70.00
2018-06-11T08:24:39.203Z,69.20
2018-06-11T08:27:08.153Z,64.40
2018-06-11T08:29:37.157Z,63.20
2018-06-11T08:32:06.080Z,61.60
2018-06-11T08:34:35.020Z,67.80
2018-06-11T08:37:05.599Z,66.30
2018-06-11T08:39:34.665Z,62.70
2018-06-11T08:42:03.597Z,60.60
2018-06-11T08:44:32.505Z,62.30
2018-06-11T08:47:01.436Z,61.90
2018-06-11T08:49:30.434Z,65.10
2018-06-11T08:51:59.468Z,66.00
2018-06-11T08:54:28.393Z,61.10
2018-06-11T08:56:57.321Z,58.70
2018-06-11T08:59:26.277Z,59.60
2018-06-11T09:01:55.234Z,60.90
2018-06-11T09:04:24.176Z,61.60
2018-06-11T09:06:53.266Z,61.60
2018-06-11T09:09:22.213Z,63.40
2018-06-11T09:11:51.181Z,62.40
2018-06-11T09:19:17.415Z,67.10
2018-06-11T09:21:46.314Z,66.90
2018-06-11T09:24:15.463Z,63.30
2018-06-11T09:26:44.365Z,64.60
2018-06-11T09:29:13.289Z,66.50
2018-06-11T09:31:42.203Z,65.00
2018-06-11T09:34:11.145Z,61.60
2018-06-11T09:36:40.063Z,63.10
2018-06-11T09:39:08.973Z,59.40
2018-06-11T09:41:37.968Z,58.00
2018-06-11T09:44:06.887Z,58.30
2018-06-11T09:46:35.806Z,57.20
2018-06-11T09:49:05.160Z,56.40
2018-06-11T09:51:34.059Z,58.50
2018-06-11T09:54:02.997Z,59.60
2018-06-11T09:56:32.125Z,58.60
2018-06-11T09:59:01.001Z,60.70
2018-06-11T10:06:27.281Z,60.10
2018-06-11T10:08:56.190Z,60.20
2018-06-11T10:11:25.151Z,63.80
2018-06-11T10:13:54.285Z,63.80
2018-06-11T10:16:23.225Z,62.20
2018-06-11T10:18:52.141Z,63.20
2018-06-11T10:21:21.118Z,59.40
2018-06-11T10:23:50.282Z,58.00
2018-06-11T10:26:19.205Z,62.10
2018-06-11T10:28:48.145Z,57.80
2018-06-11T10:31:17.083Z,57.00
2018-06-11T10:33:46.104Z,57.50
2018-06-11T10:36:15.032Z,54.60
2018-06-11T10:38:43.942Z,56.30
2018-06-11T10:41:12.867Z,52.60
2018-06-11T10:43:41.904Z,52.80
2018-06-11T10:46:10.869Z,54.10
2018-06-11T10:48:39.858Z,55.20
2018-06-11T10:51:08.785Z,54.30
2018-06-11T10:53:37.868Z,52.80
2018-06-11T10:56:06.781Z,52.00
2018-06-11T10:58:35.750Z,52.40
2018-06-11T11:01:04.674Z,54.20
2018-06-11T11:03:33.609Z,54.30
2018-06-11T11:06:02.675Z,51.50
2018-06-11T11:08:31.609Z,53.70
2018-06-11T11:13:29.209Z,54.20
2018-06-11T11:15:58.150Z,54.90
2018-06-11T11:18:27.134Z,54.40
2018-06-11T11:20:56.534Z,54.60
2018-06-11T11:23:25.484Z,56.30
2018-06-11T11:25:54.494Z,56.70
2018-06-11T11:28:23.413Z,55.90
2018-06-11T11:30:52.382Z,55.50
2018-06-11T11:33:21.538Z,56.00
2018-06-11T11:35:50.453Z,54.60
2018-06-11T11:38:19.373Z,51.30
2018-06-11T11:40:48.282Z,53.30
2018-06-11T11:43:17.218Z,52.70
2018-06-11T11:45:46.158Z,51.60
2018-06-11T11:48:15.096Z,52.40
2018-06-11T11:50:44.052Z,53.50
2018-06-11T11:53:12.952Z,53.50
2018-06-11T11:58:10.601Z,52.50
2018-06-11T12:00:39.538Z,49.90
2018-06-11T12:05:37.090Z,48.80
2018-06-11T12:08:06.111Z,51.20
2018-06-11T12:10:35.072Z,50.20
2018-06-11T12:13:04.041Z,52.00
2018-06-11T12:15:33.235Z,51.30
2018-06-11T12:18:02.324Z,49.20
2018-06-11T12:20:31.345Z,48.50
2018-06-11T12:23:00.234Z,47.20
2018-06-11T12:25:29.152Z,49.70
2018-06-11T12:30:26.797Z,47.50
2018-06-11T12:32:55.665Z,49.00
2018-06-11T12:35:24.689Z,47.00
2018-06-11T12:37:53.718Z,47.20
2018-06-11T12:40:22.677Z,47.60
2018-06-11T12:42:51.602Z,48.00
2018-06-11T12:45:20.514Z,46.20
2018-06-11T12:47:49.475Z,44.90
2018-06-11T12:50:18.397Z,44.00
2018-06-11T12:52:47.327Z,45.00
2018-06-11T12:55:16.277Z,45.50
2018-06-11T12:57:45.190Z,46.90
2018-06-11T13:02:42.949Z,44.80
2018-06-11T13:05:11.835Z,45.00
2018-06-11T13:07:40.919Z,43.40
2018-06-11T13:10:09.998Z,45.00
2018-06-11T13:12:38.962Z,44.80
2018-06-11T13:15:07.991Z,42.30
2018-06-11T13:17:37.023Z,42.60
2018-06-11T13:20:05.969Z,42.70
2018-06-11T13:22:34.914Z,41.90
2018-06-11T13:27:32.693Z,41.20
2018-06-11T13:37:27.378Z,42.10
2018-06-11T13:39:56.291Z,43.50
2018-06-11T13:42:25.197Z,43.60
2018-06-11T13:44:54.122Z,43.40
2018-06-11T13:47:23.117Z,44.00
2018-06-11T13:49:52.013Z,43.20
2018-06-11T13:52:20.918Z,42.00
2018-06-11T13:54:49.827Z,41.80
2018-06-11T13:57:18.742Z,42.60
2018-06-11T13:59:47.729Z,44.10
2018-06-11T14:02:16.637Z,44.00
2018-06-11T14:04:45.547Z,43.50
2018-06-11T14:07:14.454Z,45.40
2018-06-11T14:09:43.401Z,44.80
2018-06-11T14:12:12.331Z,46.00
2018-06-11T14:14:41.275Z,46.90
2018-06-11T14:17:10.234Z,47.50
2018-06-11T14:19:39.150Z,47.00
2018-06-11T14:22:08.042Z,48.30
2018-06-11T14:24:37.063Z,48.60
2018-06-11T14:27:06.569Z,49.60
2018-06-11T14:29:35.486Z,48.20
2018-06-11T14:32:05.279Z,47.90
2018-06-11T14:34:34.281Z,47.70
2018-06-11T14:37:03.229Z,49.40
2018-06-11T14:39:32.140Z,48.50
2018-06-11T14:42:01.050Z,48.80
2018-06-11T14:44:30.208Z,47.50
2018-06-11T14:49:27.645Z,47.40
2018-06-11T14:51:56.585Z,47.70
2018-06-11T14:54:25.565Z,50.20
2018-06-11T14:56:54.495Z,50.50
2018-06-11T14:59:23.453Z,50.10
2018-06-11T15:01:52.407Z,49.60
2018-06-11T15:04:21.346Z,50.80
2018-06-11T15:06:50.273Z,49.70
2018-06-11T15:09:19.273Z,50.70
2018-06-11T15:11:48.343Z,50.70
2018-06-11T15:14:17.263Z,50.80
2018-06-11T15:21:43.839Z,50.10
2018-06-11T15:24:12.806Z,49.00
2018-06-11T15:26:41.775Z,48.80
2018-06-11T15:29:10.816Z,50.20
2018-06-11T15:31:39.690Z,50.40
2018-06-11T15:39:07.892Z,52.40
2018-06-11T15:41:36.839Z,49.90
2018-06-11T15:44:06.349Z,52.40
2018-06-11T15:46:35.309Z,50.20
2018-06-11T15:49:04.222Z,51.30
2018-06-11T15:51:33.148Z,51.50
2018-06-11T15:54:02.370Z,50.70
2018-06-11T15:56:31.303Z,51.80
2018-06-11T15:59:00.532Z,51.60
2018-06-11T16:01:30.292Z,51.30
2018-06-11T16:04:02.159Z,51.80
2018-06-11T16:06:32.613Z,53.30
2018-06-11T16:09:04.296Z,53.70
2018-06-11T16:11:34.921Z,53.70
2018-06-11T16:14:04.142Z,53.90
2018-06-11T16:16:34.467Z,55.20
2018-06-11T16:19:04.749Z,55.00
2018-06-11T16:21:36.021Z,55.00
2018-06-11T16:24:05.585Z,54.50
2018-06-11T16:26:38.611Z,55.50
2018-06-11T16:31:40.642Z,57.00
2018-06-11T16:34:11.214Z,54.00
2018-06-11T16:36:40.626Z,54.90
2018-06-11T16:42:32.157Z,56.00
2018-06-11T16:45:31.678Z,53.60
2018-06-11T16:48:01.432Z,51.40
2018-06-11T16:50:30.372Z,52.20
2018-06-11T16:52:59.586Z,52.10
2018-06-11T16:55:28.683Z,53.40
2018-06-11T16:57:58.431Z,53.40
2018-06-11T17:00:27.580Z,53.80
2018-06-11T17:02:56.828Z,52.20
2018-06-11T17:05:26.179Z,53.90
2018-06-11T17:07:55.802Z,53.50
2018-06-11T17:10:25.607Z,52.90
2018-06-11T17:15:23.101Z,54.00
2018-06-11T17:17:52.652Z,54.70
2018-06-11T17:20:21.613Z,55.40
2018-06-11T17:22:50.528Z,53.30
2018-06-11T17:27:48.834Z,54.20
2018-06-11T17:30:17.871Z,54.50
2018-06-11T17:32:47.125Z,55.10
2018-06-11T17:37:44.766Z,54.40
2018-06-11T17:42:42.598Z,56.70
2018-06-11T17:45:11.518Z,56.90
2018-06-11T17:47:40.629Z,56.50
2018-06-11T17:50:09.569Z,54.90
2018-06-11T17:52:38.528Z,56.70
2018-06-11T17:55:08.560Z,56.40
2018-06-11T17:57:37.549Z,55.80
2018-06-11T18:00:06.605Z,57.70
2018-06-11T18:02:35.561Z,57.70
2018-06-11T18:05:04.622Z,58.10
2018-06-11T18:07:33.577Z,58.80
2018-06-11T18:10:02.538Z,56.80
2018-06-11T18:12:31.501Z,57.30
2018-06-11T18:15:00.405Z,58.60
2018-06-11T18:17:29.590Z,59.00
2018-06-11T18:19:58.540Z,61.30
2018-06-11T18:22:27.443Z,58.80
2018-06-11T18:27:24.985Z,61.60
2018-06-11T18:29:53.936Z,62.80
2018-06-11T18:32:22.882Z,61.60
2018-06-11T18:34:51.794Z,63.50
2018-06-11T18:37:21.038Z,65.10
2018-06-11T18:39:50.094Z,67.10
2018-06-11T18:42:19.085Z,66.80
2018-06-11T18:44:48.033Z,66.30
2018-06-11T18:47:17.034Z,68.50
2018-06-11T18:49:45.941Z,69.20
2018-06-11T18:52:14.902Z,69.00
2018-06-11T18:54:43.897Z,69.00
2018-06-11T18:57:12.886Z,70.60
2018-06-11T18:59:42.238Z,71.90
2018-06-11T19:02:11.150Z,71.50
2018-06-11T19:04:40.052Z,71.40
2018-06-11T19:07:09.050Z,73.10
2018-06-11T19:09:38.039Z,72.50
2018-06-11T19:12:07.941Z,71.00
2018-06-11T19:14:37.834Z,72.10
2018-06-11T19:17:06.879Z,72.10
2018-06-11T19:19:35.754Z,72.50
2018-06-11T19:22:04.722Z,73.60
2018-06-11T19:24:33.678Z,74.00
2018-06-11T19:27:02.926Z,73.80
2018-06-11T19:29:31.826Z,74.20
2018-06-11T19:32:00.738Z,75.20
2018-06-11T19:34:29.698Z,75.20
2018-06-11T19:36:58.634Z,76.10
2018-06-11T19:39:27.522Z,76.60
2018-06-11T19:41:56.431Z,77.80
2018-06-11T19:44:25.341Z,77.20
2018-06-11T19:46:54.326Z,77.70
2018-06-11T19:49:23.259Z,79.80
2018-06-11T19:51:52.219Z,80.30
2018-06-11T19:54:21.245Z,81.40
2018-06-11T19:56:50.185Z,81.60
2018-06-11T19:59:19.198Z,82.00
2018-06-11T20:01:48.429Z,81.90
2018-06-11T20:04:17.354Z,82.70
2018-06-11T20:06:46.328Z,83.30
2018-06-11T20:09:15.334Z,83.60
2018-06-11T20:11:44.354Z,83.80
2018-06-11T20:14:13.265Z,83.90
2018-06-11T20:16:42.156Z,84.20
2018-06-11T20:19:11.073Z,83.80
2018-06-11T20:24:08.918Z,81.90
2018-06-11T20:26:37.845Z,82.20
2018-06-11T20:29:07.123Z,82.10
2018-06-11T20:34:04.673Z,82.60
2018-06-11T20:36:33.594Z,83.30
2018-06-11T20:39:02.559Z,83.20
2018-06-11T20:41:31.537Z,83.90
2018-06-11T20:44:00.515Z,83.90
2018-06-11T20:46:29.906Z,83.90
2018-06-11T20:48:58.974Z,84.80
2018-06-11T20:51:27.942Z,85.40
2018-06-11T20:53:56.862Z,85.10
2018-06-11T20:56:25.786Z,85.60
2018-06-11T20:58:54.688Z,86.50
2018-06-11T21:01:23.612Z,87.10
2018-06-11T21:03:52.545Z,86.70
2018-06-11T21:06:21.474Z,87.80
2018-06-11T21:08:50.414Z,87.60
2018-06-11T21:11:19.338Z,88.30
2018-06-11T21:13:48.343Z,89.20
2018-06-11T21:16:17.570Z,89.60
2018-06-11T21:18:46.478Z,89.60
2018-06-11T21:21:15.402Z,89.80
2018-06-11T21:23:45.239Z,90.10
2018-06-11T21:26:14.160Z,90.60
2018-06-11T21:28:43.122Z,90.50
2018-06-11T21:31:12.212Z,90.60
2018-06-11T21:33:41.162Z,91.00
2018-06-11T21:36:10.118Z,90.90
2018-06-11T21:38:39.042Z,91.00
2018-06-11T21:41:08.025Z,91.00
2018-06-11T21:43:36.973Z,91.10
2018-06-11T21:51:03.467Z,91.40
2018-06-11T21:53:32.406Z,91.30
2018-06-11T21:56:01.410Z,91.40
2018-06-11T21:58:30.322Z,91.50
2018-06-11T22:01:00.254Z,91.50
2018-06-11T22:03:29.223Z,91.70
2018-06-11T22:05:58.101Z,91.80
2018-06-11T22:08:27.323Z,91.70
2018-06-11T22:10:56.451Z,92.00
2018-06-11T22:13:25.310Z,92.20
2018-06-11T22:15:54.210Z,92.30
2018-06-11T22:18:23.224Z,92.30
2018-06-11T22:20:52.142Z,92.50
2018-06-11T22:23:21.049Z,92.70
2018-06-11T22:25:49.962Z,92.60
2018-06-11T22:28:18.891Z,92.50
2018-06-11T22:30:47.937Z,92.60
2018-06-11T22:33:16.958Z,92.90
2018-06-11T22:35:45.817Z,93.00
2018-06-11T22:38:15.042Z,93.00
2018-06-11T22:40:44.262Z,93.00
2018-06-11T22:43:13.509Z,93.30
2018-06-11T22:45:42.585Z,93.60
2018-06-11T22:48:11.501Z,93.60
2018-06-11T22:50:40.617Z,93.70
2018-06-11T22:53:09.561Z,93.80
2018-06-11T22:55:38.502Z,93.90
2018-06-11T22:58:07.489Z,94.10
2018-06-11T23:00:36.399Z,94.20
2018-06-11T23:03:05.453Z,94.10
2018-06-11T23:05:34.354Z,94.10
2018-06-11T23:08:03.293Z,94.40
2018-06-11T23:10:32.222Z,94.40
2018-06-11T23:13:01.341Z,94.50
2018-06-11T23:15:30.299Z,94.50
2018-06-11T23:17:59.190Z,94.70
2018-06-11T23:20:28.089Z,94.70
2018-06-11T23:22:57.148Z,94.90
2018-06-11T23:25:26.103Z,95.10
2018-06-11T23:27:55.021Z,95.10
2018-06-11T23:30:23.914Z,95.20
2018-06-11T23:32:52.846Z,95.40
2018-06-11T23:35:22.333Z,95.50
2018-06-11T23:37:51.234Z,95.70
2018-06-11T23:40:20.197Z,95.70
2018-06-11T23:42:49.112Z,95.90
2018-06-11T23:45:18.057Z,95.80
2018-06-11T23:47:46.990Z,96.40
2018-06-11T23:50:15.925Z,96.40
2018-06-11T23:52:44.882Z,96.10
2018-06-11T23:55:13.808Z,96.20
2018-06-11T23:57:42.765Z,96.70
